sensor_id;sensor_type;location;lat;lon;timestamp;temperature;humidity
949;DHT22;461;51.436;7.312;2024-01-10T00:31:28;-2.80;93.10
949;DHT22;461;51.436;7.312;2024-01-10T00:33:54;-2.90;92.90
949;DHT22;461;51.436;7.312;2024-01-10T00:36:20;-2.80;92.90
949;DHT22;461;51.436;7.312;2024-01-10T00:38:46;-2.90;92.90
949;DHT22;461;51.436;7.312;2024-01-10T00:41:12;-2.80;92.90
949;DHT22;461;51.436;7.312;2024-01-10T00:43:38;-2.80;92.70
949;DHT22;461;51.436;7.312;2024-01-10T00:46:04;-2.90;92.90
949;DHT22;461;51.436;7.312;2024-01-10T00:48:30;-2.80;93.00
949;DHT22;461;51.436;7.312;2024-01-10T00:50:55;-2.80;92.70
949;DHT22;461;51.436;7.312;2024-01-10T00:53:21;-2.80;92.60
949;DHT22;461;51.436;7.312;2024-01-10T00:55:48;-2.90;92.80
949;DHT22;461;51.436;7.312;2024-01-10T00:58:13;-2.70;92.90
949;DHT22;461;51.436;7.312;2024-01-10T01:00:39;-2.80;92.70
949;DHT22;461;51.436;7.312;2024-01-10T01:03:06;-2.80;92.80
949;DHT22;461;51.436;7.312;2024-01-10T01:05:32;-2.90;92.80
949;DHT22;461;51.436;7.312;2024-01-10T01:07:58;-2.80;93.00
949;DHT22;461;51.436;7.312;2024-01-10T01:10:24;-2.90;93.00
949;DHT22;461;51.436;7.312;2024-01-10T01:12:49;-3.00;93.20
949;DHT22;461;51.436;7.312;2024-01-10T01:15:15;-3.10;93.30
949;DHT22;461;51.436;7.312;2024-01-10T01:17:42;-3.20;93.50
949;DHT22;461;51.436;7.312;2024-01-10T01:20:08;-3.20;93.60
949;DHT22;461;51.436;7.312;2024-01-10T01:22:34;-3.10;93.60
949;DHT22;461;51.436;7.312;2024-01-10T01:25:00;-3.20;93.60
949;DHT22;461;51.436;7.312;2024-01-10T01:27:26;-3.20;93.60
949;DHT22;461;51.436;7.312;2024-01-10T01:29:51;-3.20;93.70
949;DHT22;461;51.436;7.312;2024-01-10T01:32:17;-3.30;93.90
949;DHT22;461;51.436;7.312;2024-01-10T01:34:43;-3.30;93.80
949;DHT22;461;51.436;7.312;2024-01-10T01:37:09;-3.20;93.80
949;DHT22;461;51.436;7.312;2024-01-10T01:39:35;-3.30;93.40
949;DHT22;461;51.436;7.312;2024-01-10T01:42:01;-3.20;93.90
949;DHT22;461;51.436;7.312;2024-01-10T01:44:27;-3.30;93.50
949;DHT22;461;51.436;7.312;2024-01-10T01:46:53;-3.40;93.80
949;DHT22;461;51.436;7.312;2024-01-10T01:49:19;-3.50;94.00
949;DHT22;461;51.436;7.312;2024-01-10T01:51:46;-3.40;93.80
949;DHT22;461;51.436;7.312;2024-01-10T01:54:12;-3.50;93.90
949;DHT22;461;51.436;7.312;2024-01-10T01:56:39;-3.50;94.00
949;DHT22;461;51.436;7.312;2024-01-10T01:59:05;-3.50;94.00
949;DHT22;461;51.436;7.312;2024-01-10T02:01:41;-3.50;94.00
949;DHT22;461;51.436;7.312;2024-01-10T02:04:07;-3.40;94.00
949;DHT22;461;51.436;7.312;2024-01-10T02:06:33;-3.40;93.80
949;DHT22;461;51.436;7.312;2024-01-10T02:08:59;-3.50;93.90
949;DHT22;461;51.436;7.312;2024-01-10T02:11:25;-3.60;94.10
949;DHT22;461;51.436;7.312;2024-01-10T02:13:52;-3.50;94.20
949;DHT22;461;51.436;7.312;2024-01-10T02:16:23;-3.60;94.10
949;DHT22;461;51.436;7.312;2024-01-10T02:18:50;-3.70;94.10
949;DHT22;461;51.436;7.312;2024-01-10T02:21:20;-3.70;94.50
949;DHT22;461;51.436;7.312;2024-01-10T02:23:46;-3.70;94.60
949;DHT22;461;51.436;7.312;2024-01-10T02:26:11;-3.70;94.80
949;DHT22;461;51.436;7.312;2024-01-10T02:28:37;-3.70;94.60
949;DHT22;461;51.436;7.312;2024-01-10T02:31:03;-3.70;94.80
949;DHT22;461;51.436;7.312;2024-01-10T02:33:29;-3.80;95.00
949;DHT22;461;51.436;7.312;2024-01-10T02:35:55;-3.90;95.30
949;DHT22;461;51.436;7.312;2024-01-10T02:38:20;-3.80;95.40
949;DHT22;461;51.436;7.312;2024-01-10T02:40:49;-3.90;95.50
949;DHT22;461;51.436;7.312;2024-01-10T02:43:15;-4.00;95.60
949;DHT22;461;51.436;7.312;2024-01-10T02:45:41;-4.10;95.90
949;DHT22;461;51.436;7.312;2024-01-10T02:48:07;-4.20;96.00
949;DHT22;461;51.436;7.312;2024-01-10T02:50:33;-4.30;96.20
949;DHT22;461;51.436;7.312;2024-01-10T02:52:58;-4.30;96.40
949;DHT22;461;51.436;7.312;2024-01-10T02:55:24;-4.40;96.50
949;DHT22;461;51.436;7.312;2024-01-10T02:57:50;-4.30;96.60
949;DHT22;461;51.436;7.312;2024-01-10T03:00:16;-4.30;96.80
949;DHT22;461;51.436;7.312;2024-01-10T03:02:45;-4.40;96.80
949;DHT22;461;51.436;7.312;2024-01-10T03:05:11;-4.40;96.80
949;DHT22;461;51.436;7.312;2024-01-10T03:07:37;-4.40;97.20
949;DHT22;461;51.436;7.312;2024-01-10T03:10:02;-4.50;97.30
949;DHT22;461;51.436;7.312;2024-01-10T03:12:29;-4.50;97.50
949;DHT22;461;51.436;7.312;2024-01-10T03:14:55;-4.50;97.60
949;DHT22;461;51.436;7.312;2024-01-10T03:17:20;-4.50;97.70
949;DHT22;461;51.436;7.312;2024-01-10T03:19:47;-4.50;97.80
949;DHT22;461;51.436;7.312;2024-01-10T03:22:13;-4.40;97.70
949;DHT22;461;51.436;7.312;2024-01-10T03:24:39;-4.30;97.50
949;DHT22;461;51.436;7.312;2024-01-10T03:27:05;-4.10;97.40
949;DHT22;461;51.436;7.312;2024-01-10T03:29:31;-4.20;97.40
949;DHT22;461;51.436;7.312;2024-01-10T03:31:57;-4.40;97.50
949;DHT22;461;51.436;7.312;2024-01-10T03:34:22;-4.30;97.70
949;DHT22;461;51.436;7.312;2024-01-10T03:36:48;-4.20;97.70
949;DHT22;461;51.436;7.312;2024-01-10T03:39:14;-4.20;97.70
949;DHT22;461;51.436;7.312;2024-01-10T03:41:40;-4.20;97.50
949;DHT22;461;51.436;7.312;2024-01-10T03:44:06;-4.20;97.50
949;DHT22;461;51.436;7.312;2024-01-10T03:46:32;-4.10;97.40
949;DHT22;461;51.436;7.312;2024-01-10T03:48:57;-3.90;97.50
949;DHT22;461;51.436;7.312;2024-01-10T04:23:08;-3.90;97.20
949;DHT22;461;51.436;7.312;2024-01-10T04:25:37;-3.20;96.40
949;DHT22;461;51.436;7.312;2024-01-10T04:28:03;-3.20;96.30
949;DHT22;461;51.436;7.312;2024-01-10T04:30:29;-3.20;96.30
949;DHT22;461;51.436;7.312;2024-01-10T04:32:55;-3.20;96.40
949;DHT22;461;51.436;7.312;2024-01-10T04:35:21;-3.20;96.40
949;DHT22;461;51.436;7.312;2024-01-10T04:37:46;-3.20;96.30
949;DHT22;461;51.436;7.312;2024-01-10T04:40:12;-3.30;96.30
949;DHT22;461;51.436;7.312;2024-01-10T04:42:38;-3.30;96.50
949;DHT22;461;51.436;7.312;2024-01-10T04:45:04;-3.20;96.40
949;DHT22;461;51.436;7.312;2024-01-10T04:47:30;-3.30;96.40
949;DHT22;461;51.436;7.312;2024-01-10T05:33:50;-3.40;96.60
949;DHT22;461;51.436;7.312;2024-01-10T05:36:16;-3.70;98.70
949;DHT22;461;51.436;7.312;2024-01-10T05:38:42;-3.70;98.70
949;DHT22;461;51.436;7.312;2024-01-10T05:41:08;-3.60;98.80
949;DHT22;461;51.436;7.312;2024-01-10T05:43:34;-3.60;98.90
949;DHT22;461;51.436;7.312;2024-01-10T05:46:00;-3.70;98.80
949;DHT22;461;51.436;7.312;2024-01-10T05:48:25;-3.70;99.00
949;DHT22;461;51.436;7.312;2024-01-10T05:50:51;-3.80;98.90
949;DHT22;461;51.436;7.312;2024-01-10T05:53:17;-3.70;98.60
949;DHT22;461;51.436;7.312;2024-01-10T05:55:43;-3.80;98.70
949;DHT22;461;51.436;7.312;2024-01-10T05:58:10;-3.90;99.30
949;DHT22;461;51.436;7.312;2024-01-10T06:00:36;-4.00;99.20
949;DHT22;461;51.436;7.312;2024-01-10T06:03:02;-4.00;99.20
949;DHT22;461;51.436;7.312;2024-01-10T06:05:28;-4.00;99.20
949;DHT22;461;51.436;7.312;2024-01-10T06:07:53;-4.10;99.40
949;DHT22;461;51.436;7.312;2024-01-10T06:10:19;-4.10;99.30
949;DHT22;461;51.436;7.312;2024-01-10T06:39:35;-4.20;99.90
949;DHT22;461;51.436;7.312;2024-01-10T06:42:01;-4.10;99.90
949;DHT22;461;51.436;7.312;2024-01-10T06:44:29;-4.10;99.90
949;DHT22;461;51.436;7.312;2024-01-10T06:46:55;-4.20;99.90
949;DHT22;461;51.436;7.312;2024-01-10T06:49:21;-4.20;99.90
949;DHT22;461;51.436;7.312;2024-01-10T06:51:47;-4.30;99.90
949;DHT22;461;51.436;7.312;2024-01-10T06:54:12;-4.40;99.90
949;DHT22;461;51.436;7.312;2024-01-10T06:56:40;-4.40;99.90
949;DHT22;461;51.436;7.312;2024-01-10T06:59:06;-4.30;99.90
949;DHT22;461;51.436;7.312;2024-01-10T07:01:32;-4.40;99.90
949;DHT22;461;51.436;7.312;2024-01-10T07:03:58;-4.30;99.90
949;DHT22;461;51.436;7.312;2024-01-10T07:06:23;-4.40;99.90
949;DHT22;461;51.436;7.312;2024-01-10T07:08:50;-4.40;99.90
949;DHT22;461;51.436;7.312;2024-01-10T07:11:17;-4.30;99.90
949;DHT22;461;51.436;7.312;2024-01-10T07:13:43;-4.30;99.90
949;DHT22;461;51.436;7.312;2024-01-10T07:16:09;-4.30;99.90
949;DHT22;461;51.436;7.312;2024-01-10T07:18:35;-4.20;99.90
949;DHT22;461;51.436;7.312;2024-01-10T07:21:01;-4.20;99.90
949;DHT22;461;51.436;7.312;2024-01-10T07:24:03;-4.20;99.90
949;DHT22;461;51.436;7.312;2024-01-10T07:36:32;-4.20;99.90
949;DHT22;461;51.436;7.312;2024-01-10T07:39:27;-4.20;99.90
949;DHT22;461;51.436;7.312;2024-01-10T07:42:05;-4.10;99.90
949;DHT22;461;51.436;7.312;2024-01-10T07:44:36;-4.10;99.90
949;DHT22;461;51.436;7.312;2024-01-10T07:47:05;-4.00;99.90
949;DHT22;461;51.436;7.312;2024-01-10T07:49:33;-4.00;99.90
949;DHT22;461;51.436;7.312;2024-01-10T07:51:58;-4.00;99.90
949;DHT22;461;51.436;7.312;2024-01-10T07:54:33;-4.10;99.90
949;DHT22;461;51.436;7.312;2024-01-10T09:13:06;-1.20;95.70
949;DHT22;461;51.436;7.312;2024-01-10T09:15:32;-1.20;95.40
949;DHT22;461;51.436;7.312;2024-01-10T09:17:58;-1.20;95.10
949;DHT22;461;51.436;7.312;2024-01-10T09:20:30;-1.10;95.10
949;DHT22;461;51.436;7.312;2024-01-10T09:26:35;-0.80;94.30
949;DHT22;461;51.436;7.312;2024-01-10T09:29:08;-0.20;94.20
949;DHT22;461;51.436;7.312;2024-01-10T09:48:36;0.30;93.60
